Time;durP1;ratioP1;P1;durP2;ratioP2;P2;SDS_P1;SDS_P2;PMS_P1;PMS_P2;Temp;Humidity;BMP_temperature;BMP_pressure;BME280_temperature;BME280_humidity;BME280_pressure;Samples;Min_cycle;Max_cycle;Signal;HPM_P1;HPM_P2
2022/06/01 00:00:59;;;;;;;9.10;6.65;;;;;;;17.11;68.00;95599.13;5066820;28;20526;-81
2022/06/01 00:03:30;;;;;;;9.77;7.47;;;;;;;16.89;68.94;95601.25;5050710;28;20016;-81
2022/06/01 00:05:55;;;;;;;13.65;9.82;;;;;;;16.78;69.59;95597.34;5067846;28;20039;-81
2022/06/01 00:08:21;;;;;;;16.10;9.88;;;;;;;16.74;69.36;95599.63;5067660;28;20508;-81
2022/06/01 00:10:47;;;;;;;14.13;9.40;;;;;;;16.75;69.07;95593.16;5071514;28;20403;-81
2022/06/01 00:13:13;;;;;;;12.93;10.30;;;;;;;16.84;68.61;95601.91;5087703;28;20026;-81
2022/06/01 00:15:38;;;;;;;14.95;10.65;;;;;;;16.62;69.53;95593.22;5071171;28;20040;-81
2022/06/01 00:18:03;;;;;;;12.00;9.90;;;;;;;16.69;69.71;95599.44;5087326;28;20025;-81
2022/06/01 00:20:29;;;;;;;13.23;10.05;;;;;;;16.80;69.58;95601.50;5071027;28;20020;-81
2022/06/01 00:22:56;;;;;;;12.73;9.27;;;;;;;16.81;69.47;95596.91;5071038;28;20020;-81
2022/06/01 00:25:21;;;;;;;12.80;9.73;;;;;;;16.83;69.54;95599.41;5088921;28;20035;-83
2022/06/01 00:27:47;;;;;;;14.88;9.77;;;;;;;16.64;69.69;95593.81;5087882;28;20028;-82
2022/06/01 00:30:13;;;;;;;11.35;7.93;;;;;;;16.61;70.03;95586.97;5089108;28;20028;-81
2022/06/01 00:32:39;;;;;;;9.25;7.88;;;;;;;16.62;70.00;95590.50;5087882;28;20640;-82
2022/06/01 00:35:05;;;;;;;11.20;7.43;;;;;;;16.67;69.96;95593.38;5069917;28;20024;-80
2022/06/01 00:37:30;;;;;;;9.35;6.90;;;;;;;16.61;69.95;95595.06;5070933;28;20127;-82
2022/06/01 00:39:56;;;;;;;8.48;6.75;;;;;;;16.56;69.91;95594.88;5053045;28;20405;-79
2022/06/01 00:42:27;;;;;;;9.13;6.53;;;;;;;16.60;69.99;95601.53;5088963;28;20048;-82
2022/06/01 00:44:52;;;;;;;11.02;6.75;;;;;;;16.64;69.88;95602.78;5070640;28;20570;-82
2022/06/01 00:47:19;;;;;;;8.45;6.65;;;;;;;16.38;70.57;95604.47;5088579;28;20062;-82
2022/06/01 00:49:51;;;;;;;8.40;6.40;;;;;;;16.36;70.71;95606.56;5087210;28;20040;-82
2022/06/01 00:52:35;;;;;;;7.03;5.55;;;;;;;16.49;71.00;95610.31;5086762;28;20035;-82
2022/06/01 00:55:17;;;;;;;9.05;5.97;;;;;;;16.50;70.32;95596.56;5073329;28;20034;-82
2022/06/01 00:57:42;;;;;;;8.48;5.38;;;;;;;16.38;70.51;95598.25;5087003;28;20024;-82
2022/06/01 01:00:14;;;;;;;5.57;4.80;;;;;;;16.39;70.70;95597.19;5070645;28;20016;-81
2022/06/01 01:02:39;;;;;;;6.13;4.78;;;;;;;16.46;70.64;95594.50;5070857;28;20119;-80
2022/06/01 01:05:06;;;;;;;9.95;5.45;;;;;;;16.51;70.43;95592.81;5069987;28;20107;-80
2022/06/01 01:07:31;;;;;;;6.28;4.85;;;;;;;16.49;70.25;95583.25;5070506;28;20020;-82
2022/06/01 01:09:57;;;;;;;6.50;4.18;;;;;;;16.52;69.98;95582.81;5052694;28;20055;-81
2022/06/01 01:12:22;;;;;;;4.93;3.95;;;;;;;16.53;69.77;95581.75;5087347;28;20129;-82
2022/06/01 01:14:48;;;;;;;8.00;4.22;;;;;;;16.44;70.06;95575.75;5086314;28;20032;-80
2022/06/01 01:17:14;;;;;;;8.63;4.03;;;;;;;16.48;70.25;95570.72;5070464;28;20024;-80
2022/06/01 01:19:47;;;;;;;5.22;4.18;;;;;;;16.56;70.24;95573.22;5068933;28;20032;-82
2022/06/01 01:22:16;;;;;;;7.18;3.97;;;;;;;16.63;69.60;95562.38;5052743;28;20107;-81
2022/06/01 01:24:48;;;;;;;5.43;4.03;;;;;;;16.66;69.21;95570.91;5086706;28;20467;-82
2022/06/01 01:27:13;;;;;;;9.55;4.00;;;;;;;16.62;69.34;95561.53;5052949;28;20478;-82
2022/06/01 01:29:41;;;;;;;8.10;3.65;;;;;;;16.65;68.70;95561.09;5069925;28;20372;-82
2022/06/01 01:32:07;;;;;;;6.63;3.67;;;;;;;16.63;68.71;95567.78;5086319;28;20103;-82
2022/06/01 01:34:34;;;;;;;5.60;3.30;;;;;;;16.61;68.83;95575.28;5088040;28;20032;-81
2022/06/01 01:37:01;;;;;;;6.18;3.60;;;;;;;16.63;68.64;95567.78;5086384;28;20115;-82
2022/06/01 01:39:26;;;;;;;4.47;3.75;;;;;;;16.56;67.94;95565.94;5069761;28;20024;-81
2022/06/01 01:41:53;;;;;;;7.47;4.25;;;;;;;16.44;68.62;95559.50;5069409;28;20039;-81
2022/06/01 01:44:30;;;;;;;10.40;5.28;;;;;;;16.32;69.17;95567.44;5087106;28;20028;-81
2022/06/01 01:46:56;;;;;;;9.50;5.47;;;;;;;16.28;69.63;95571.59;5086663;28;20126;-82
2022/06/01 01:49:34;;;;;;;8.00;6.07;;;;;;;16.18;69.91;95572.03;5087552;28;20499;-83
2022/06/01 01:52:06;;;;;;;10.02;5.72;;;;;;;15.92;70.85;95563.69;5086579;28;20077;-81
2022/06/01 01:55:01;;;;;;;10.13;5.57;;;;;;;15.65;72.01;95562.81;5070403;28;20028;-80
2022/06/01 01:57:45;;;;;;;7.65;5.10;;;;;;;15.38;72.75;95560.88;5085555;28;20281;-81
2022/06/01 02:00:34;;;;;;;8.48;5.22;;;;;;;15.30;73.28;95566.47;5086392;28;20034;-81
2022/06/01 02:03:38;;;;;;;7.10;5.53;;;;;;;15.23;73.82;95566.47;5086172;28;20410;-81
2022/06/01 02:06:09;;;;;;;9.20;5.68;;;;;;;15.17;73.97;95562.72;5085292;28;20177;-82
2022/06/01 02:08:55;;;;;;;7.40;6.00;;;;;;;15.05;74.60;95561.63;5088083;28;20051;-83
2022/06/01 02:14:16;;;;;;;8.15;6.15;;;;;;;15.03;74.56;95571.78;5087957;28;20587;-82
2022/06/01 02:16:47;;;;;;;9.82;6.03;;;;;;;14.98;75.32;95564.28;5070301;28;20031;-81
2022/06/01 02:19:18;;;;;;;9.57;6.70;;;;;;;15.06;75.05;95571.38;5068705;28;20035;-81
2022/06/01 02:21:43;;;;;;;9.30;6.57;;;;;;;15.09;75.14;95565.59;5070228;28;20461;-81
2022/06/01 02:24:09;;;;;;;8.93;6.72;;;;;;;15.12;74.56;95565.16;5085818;28;20838;-82
2022/06/01 02:26:34;;;;;;;9.07;6.95;;;;;;;15.20;74.48;95573.09;5086372;28;20016;-81
2022/06/01 02:29:09;;;;;;;8.27;6.50;;;;;;;15.29;74.30;95581.03;5068856;28;20028;-82
2022/06/01 02:31:35;;;;;;;9.52;6.03;;;;;;;15.38;73.77;95579.81;5068745;28;20031;-82
2022/06/01 02:34:01;;;;;;;7.82;5.80;;;;;;;15.30;74.08;95572.72;5068677;28;20016;-82
2022/06/01 02:36:27;;;;;;;10.65;6.90;;;;;;;15.25;74.10;95571.69;5085186;28;20028;-82
2022/06/01 02:38:52;;;;;;;7.75;5.40;;;;;;;15.24;73.99;95581.63;5069066;28;20031;-81
2022/06/01 02:44:02;;;;;;;8.73;6.05;;;;;;;15.33;74.00;95587.72;5086274;28;20119;-81
2022/06/01 02:46:27;;;;;;;9.25;6.18;;;;;;;15.37;73.33;95583.56;5085026;28;20032;-81
2022/06/01 02:48:53;;;;;;;7.28;5.70;;;;;;;15.31;73.76;95587.06;5085342;28;20465;-80
2022/06/01 02:51:18;;;;;;;9.00;5.75;;;;;;;15.38;73.29;95585.22;5068367;28;20035;-81
2022/06/01 02:53:47;;;;;;;8.82;5.47;;;;;;;15.50;72.79;95587.31;5084433;28;20020;-82
2022/06/01 02:56:13;;;;;;;8.77;5.13;;;;;;;15.48;72.58;95581.28;5085249;28;20028;-82
2022/06/01 02:58:38;;;;;;;6.20;4.90;;;;;;;15.51;72.48;95584.41;5084930;28;20037;-81
2022/06/01 03:01:04;;;;;;;7.88;5.22;;;;;;;15.60;72.15;95582.38;5085041;28;20028;-81
2022/06/01 03:03:30;;;;;;;6.60;5.00;;;;;;;15.66;71.96;95586.94;5051027;28;20031;-81
2022/06/01 03:05:55;;;;;;;5.85;4.18;;;;;;;15.72;71.87;95584.47;5086254;28;20021;-82
2022/06/01 03:08:21;;;;;;;6.78;4.85;;;;;;;15.75;71.94;95592.16;5067462;28;20061;-82
2022/06/01 03:10:48;;;;;;;8.95;5.43;;;;;;;15.73;72.22;95591.53;5084577;28;20024;-80
2022/06/01 03:13:13;;;;;;;7.45;5.65;;;;;;;15.77;72.17;95595.47;5084691;28;20088;-81
2022/06/01 03:15:39;;;;;;;6.95;5.45;;;;;;;15.79;71.58;95596.94;5067393;28;20028;-80
2022/06/01 03:18:05;;;;;;;8.45;6.68;;;;;;;15.77;71.93;95598.19;5085118;28;20452;-82
2022/06/01 03:20:33;;;;;;;7.50;5.45;;;;;;;15.78;72.20;95599.88;5085566;28;20099;-81
2022/06/01 03:22:59;;;;;;;10.95;6.95;;;;;;;15.82;72.11;95598.41;5084905;28;20032;-83
2022/06/01 03:25:24;;;;;;;9.15;6.85;;;;;;;15.87;72.07;95606.72;5086037;28;20019;-83
2022/06/01 03:27:51;;;;;;;9.63;6.85;;;;;;;15.85;72.28;95603.41;5051104;28;20034;-83
2022/06/01 03:30:17;;;;;;;18.55;8.45;;;;;;;15.92;72.06;95604.25;5067632;28;20020;-83
2022/06/01 03:32:46;;;;;;;13.63;7.53;;;;;;;15.96;72.18;95606.53;5084060;28;20162;-82
2022/06/01 03:35:12;;;;;;;14.18;7.60;;;;;;;16.00;72.10;95602.41;5068044;28;20027;-85
2022/06/01 03:37:38;;;;;;;14.52;7.85;;;;;;;16.04;72.46;95603.66;5083864;28;20570;-83
2022/06/01 03:40:04;;;;;;;14.45;7.50;;;;;;;16.05;72.51;95605.31;5068016;28;20020;-81
2022/06/01 03:42:30;;;;;;;13.38;8.52;;;;;;;16.07;72.45;95614.06;5049690;28;20447;-81
2022/06/01 03:47:40;;;;;;;21.20;10.45;;;;;;;15.92;72.98;95611.53;5070548;28;20481;-80
2022/06/01 03:50:07;;;;;;;20.25;10.27;;;;;;;15.96;73.01;95610.06;5083976;28;20474;-80
2022/06/01 03:52:32;;;;;;;25.25;10.95;;;;;;;15.94;73.57;95610.25;5086188;28;20019;-81
2022/06/01 03:54:57;;;;;;;20.35;10.15;;;;;;;16.02;73.33;95621.97;5066980;28;20383;-83
2022/06/01 03:57:23;;;;;;;20.77;10.40;;;;;;;16.05;73.22;95619.69;5067723;28;21063;-80
2022/06/01 03:59:48;;;;;;;21.75;11.68;;;;;;;16.06;72.98;95617.78;5085324;28;20031;-82
2022/06/01 04:02:14;;;;;;;19.38;9.88;;;;;;;16.05;72.17;95608.03;5084138;28;20494;-82
2022/06/01 04:04:39;;;;;;;18.02;9.98;;;;;;;16.06;72.05;95612.38;5083691;28;20028;-82
2022/06/01 04:07:04;;;;;;;21.92;9.90;;;;;;;16.05;72.64;95626.97;5085926;28;20461;-81
2022/06/01 04:09:30;;;;;;;18.80;9.82;;;;;;;16.11;72.66;95628.00;5084007;28;20543;-81
2022/06/01 04:11:56;;;;;;;16.35;9.48;;;;;;;16.15;72.30;95619.25;5083655;28;20031;-81
2022/06/01 04:14:21;;;;;;;17.42;9.88;;;;;;;16.17;72.19;95617.19;5085800;28;20047;-81
2022/06/01 04:16:47;;;;;;;17.55;9.65;;;;;;;16.17;72.00;95619.88;5084918;28;20035;-80
2022/06/01 04:19:13;;;;;;;16.38;9.27;;;;;;;16.25;72.14;95620.75;5067837;28;20428;-81
2022/06/01 04:21:39;;;;;;;13.77;8.85;;;;;;;16.19;72.08;95623.22;5085061;28;20039;-81
2022/06/01 04:24:05;;;;;;;17.88;9.68;;;;;;;16.15;72.29;95621.16;5084400;28;20406;-80
2022/06/01 04:26:31;;;;;;;17.02;8.95;;;;;;;16.17;71.84;95614.47;5083367;28;20028;-81
2022/06/01 04:28:56;;;;;;;14.20;8.98;;;;;;;16.12;72.09;95621.56;5085034;28;20461;-81
2022/06/01 04:31:22;;;;;;;16.35;10.15;;;;;;;16.21;72.08;95623.03;5084091;28;20020;-80
2022/06/01 04:33:47;;;;;;;14.98;9.45;;;;;;;16.13;72.24;95618.66;5083430;28;20024;-81
2022/06/01 04:36:12;;;;;;;13.20;9.13;;;;;;;16.09;71.89;95622.78;5085288;28;20039;-82
2022/06/01 04:38:38;;;;;;;13.57;7.53;;;;;;;16.06;71.42;95621.34;5084595;28;20020;-80
2022/06/01 04:41:03;;;;;;;13.50;8.95;;;;;;;16.14;71.92;95630.28;5085296;28;20024;-80
2022/06/01 04:43:29;;;;;;;13.05;8.40;;;;;;;16.09;72.05;95622.78;5084559;28;20037;-81
2022/06/01 04:45:55;;;;;;;13.45;8.85;;;;;;;16.22;71.87;95621.97;5083679;28;20036;-81
2022/06/01 04:48:20;;;;;;;11.18;6.28;;;;;;;16.33;70.67;95616.97;5083428;28;20110;-81
2022/06/01 04:50:46;;;;;;;14.20;7.00;;;;;;;16.51;70.75;95621.75;5083216;28;20020;-81
2022/06/01 04:53:12;;;;;;;9.30;6.10;;;;;;;16.52;70.41;95634.25;5083832;28;20449;-81
2022/06/01 04:55:37;;;;;;;8.30;5.93;;;;;;;16.31;70.30;95628.03;5085310;28;20081;-83
2022/06/01 04:58:03;;;;;;;9.93;5.90;;;;;;;16.26;70.11;95642.19;5087614;28;20024;-81
2022/06/01 05:00:28;;;;;;;7.90;5.07;;;;;;;16.22;69.87;95650.91;5086726;28;20374;-80
2022/06/01 05:02:53;;;;;;;8.88;5.30;;;;;;;16.34;70.51;95643.84;5087082;28;20085;-81
2022/06/01 05:05:19;;;;;;;12.48;8.10;;;;;;;16.42;70.59;95643.63;5088236;28;20027;-82
2022/06/01 05:07:44;;;;;;;11.90;8.52;;;;;;;16.52;70.88;95648.59;5087187;28;20012;-80
2022/06/01 05:10:10;;;;;;;14.70;9.73;;;;;;;16.62;70.82;95653.59;5087158;28;20032;-81
2022/06/01 05:12:35;;;;;;;15.55;9.52;;;;;;;16.68;70.50;95652.75;5086688;28;20024;-81
2022/06/01 05:15:01;;;;;;;20.08;10.80;;;;;;;16.73;70.51;95654.00;5087126;28;20089;-81
2022/06/01 05:17:26;;;;;;;13.95;10.32;;;;;;;16.89;69.48;95648.16;5087662;28;20024;-81
2022/06/01 05:19:51;;;;;;;15.75;9.77;;;;;;;17.06;68.38;95647.69;5086660;28;20414;-81
2022/06/01 05:22:17;;;;;;;14.32;9.85;;;;;;;17.25;67.85;95645.16;5087705;28;20379;-80
2022/06/01 05:24:42;;;;;;;13.98;9.00;;;;;;;17.29;67.36;95643.69;5088125;28;20024;-81
2022/06/01 05:27:08;;;;;;;11.27;8.38;;;;;;;17.35;66.58;95642.81;5068978;28;20409;-80
2022/06/01 05:29:34;;;;;;;14.98;9.43;;;;;;;17.45;66.42;95639.66;5069301;28;20901;-82
2022/06/01 05:31:59;;;;;;;13.90;10.27;;;;;;;17.49;66.35;95642.78;5069539;28;20463;-82
2022/06/01 05:34:25;;;;;;;13.85;11.10;;;;;;;17.57;66.66;95639.81;5085830;28;20066;-80
2022/06/01 05:36:51;;;;;;;18.25;11.32;;;;;;;17.74;67.27;95636.56;5086382;28;20027;-81
2022/06/01 05:39:16;;;;;;;14.32;10.57;;;;;;;17.95;67.75;95634.56;5069064;28;20080;-81
2022/06/01 05:41:42;;;;;;;14.00;11.35;;;;;;;18.14;67.49;95635.50;5086468;28;20059;-80
2022/06/01 05:44:07;;;;;;;19.42;13.13;;;;;;;18.08;66.21;95634.50;5087191;28;20028;-80
2022/06/01 05:46:35;;;;;;;19.00;13.98;;;;;;;18.02;66.16;95632.66;5086399;28;20032;-80
2022/06/01 05:49:02;;;;;;;18.40;13.43;;;;;;;18.06;66.04;95633.03;5069095;28;20038;-81
2022/06/01 05:51:27;;;;;;;19.33;13.88;;;;;;;18.13;66.14;95633.84;5086748;28;20032;-81
2022/06/01 05:53:53;;;;;;;21.08;14.52;;;;;;;18.18;66.08;95636.75;5087357;28;20430;-81
2022/06/01 05:56:18;;;;;;;19.95;14.18;;;;;;;18.24;65.86;95640.47;5086886;28;20055;-81
2022/06/01 05:58:44;;;;;;;20.13;15.02;;;;;;;18.34;65.83;95639.97;5086255;28;20470;-80
2022/06/01 06:01:10;;;;;;;20.90;13.73;;;;;;;18.40;65.36;95630.94;5085020;28;20031;-80
2022/06/01 06:03:35;;;;;;;21.70;13.50;;;;;;;18.48;65.11;95635.25;5069156;28;20029;-82
2022/06/01 06:06:15;;;;;;;15.90;12.38;;;;;;;18.50;65.26;95635.88;5067741;28;20025;-82
2022/06/01 06:08:43;;;;;;;12.63;9.45;;;;;;;18.32;65.19;95639.34;5086955;28;20024;-82
2022/06/01 06:11:09;;;;;;;14.75;9.60;;;;;;;18.40;65.48;95634.47;5087123;28;20399;-81
2022/06/01 06:13:35;;;;;;;13.25;11.25;;;;;;;18.56;65.15;95634.97;5068061;28;20514;-82
2022/06/01 06:16:01;;;;;;;17.73;11.10;;;;;;;18.72;65.40;95635.44;5085430;28;20040;-82
2022/06/01 06:18:26;;;;;;;17.20;11.27;;;;;;;18.79;65.25;95636.22;5086592;28;20019;-81
2022/06/01 06:20:51;;;;;;;13.82;9.90;;;;;;;19.06;64.31;95627.78;5086926;28;20035;-83
2022/06/01 06:23:17;;;;;;;11.38;8.35;;;;;;;19.17;63.52;95625.41;5084858;28;20035;-81
2022/06/01 06:25:42;;;;;;;11.30;8.45;;;;;;;19.23;63.58;95636.19;5085240;28;20101;-81
2022/06/01 06:28:09;;;;;;;12.38;8.18;;;;;;;19.22;63.89;95630.97;5085426;28;20051;-81
2022/06/01 06:30:35;;;;;;;14.38;8.90;;;;;;;19.32;63.66;95630.44;5068049;28;20027;-82
2022/06/01 06:33:00;;;;;;;11.50;7.65;;;;;;;19.41;63.93;95620.09;5086771;28;20533;-82
2022/06/01 06:35:25;;;;;;;12.57;7.55;;;;;;;19.58;63.11;95626.56;5084477;28;20028;-81
2022/06/01 06:37:51;;;;;;;12.68;7.85;;;;;;;19.58;63.46;95614.84;5085538;28;20039;-82
2022/06/01 06:40:16;;;;;;;10.27;7.32;;;;;;;19.77;62.72;95612.91;5084622;28;20027;-82
2022/06/01 06:42:42;;;;;;;14.13;8.32;;;;;;;19.92;62.63;95614.38;5085301;28;20495;-81
2022/06/01 06:45:07;;;;;;;11.88;7.80;;;;;;;19.95;61.67;95619.38;5084492;28;20024;-82
2022/06/01 06:47:33;;;;;;;9.02;7.90;;;;;;;19.87;61.99;95615.94;5084750;28;20107;-81
2022/06/01 06:50:04;;;;;;;13.23;7.15;;;;;;;20.07;61.55;95622.16;5085358;28;20514;-82
2022/06/01 06:52:29;;;;;;;12.40;7.95;;;;;;;20.07;61.77;95616.72;5067687;28;20036;-81
2022/06/01 06:54:55;;;;;;;13.18;6.93;;;;;;;20.16;62.03;95611.75;5086357;28;20020;-82
2022/06/01 06:57:20;;;;;;;11.70;7.82;;;;;;;20.34;61.87;95611.69;5084203;28;20032;-81
2022/06/01 06:59:48;;;;;;;19.65;8.15;;;;;;;20.48;61.05;95606.00;5084913;28;20040;-81
2022/06/01 07:02:13;;;;;;;10.68;7.03;;;;;;;20.65;60.74;95600.66;5085448;28;20036;-81
2022/06/01 07:04:38;;;;;;;11.32;7.85;;;;;;;20.65;59.71;95597.94;5085943;28;20035;-81
2022/06/01 07:07:04;;;;;;;9.32;7.18;;;;;;;20.53;60.71;95602.56;5085989;28;20036;-81
2022/06/01 07:09:30;;;;;;;13.55;8.10;;;;;;;20.55;60.84;95603.16;5085150;28;20047;-80
2022/06/01 07:11:55;;;;;;;14.88;7.30;;;;;;;20.66;61.20;95601.50;5084844;28;20020;-80
2022/06/01 07:14:20;;;;;;;10.65;7.07;;;;;;;20.50;61.10;95603.88;5085006;28;20029;-79
2022/06/01 07:16:46;;;;;;;12.55;7.13;;;;;;;20.65;61.85;95605.28;5085931;28;20028;-81
2022/06/01 07:19:11;;;;;;;11.88;7.03;;;;;;;20.75;61.62;95600.91;5084487;28;20070;-80
2022/06/01 07:21:37;;;;;;;10.80;6.85;;;;;;;20.97;61.46;95600.31;5085729;28;20020;-80
2022/06/01 07:24:04;;;;;;;10.75;7.40;;;;;;;21.06;60.11;95594.50;5084264;28;20020;-80
2022/06/01 07:26:32;;;;;;;11.57;7.20;;;;;;;21.08;59.67;95601.38;5084108;28;20027;-82
2022/06/01 07:28:58;;;;;;;12.25;6.72;;;;;;;21.09;59.75;95585.81;5067907;28;20032;-82
2022/06/01 07:31:24;;;;;;;14.68;7.95;;;;;;;21.14;61.53;95587.84;5066421;28;20494;-81
2022/06/01 07:33:51;;;;;;;12.60;7.28;;;;;;;21.16;59.29;95585.69;5084641;28;20035;-81
2022/06/01 07:36:16;;;;;;;8.40;6.22;;;;;;;21.19;59.41;95587.94;5083971;28;20058;-81
2022/06/01 07:44:26;;;;;;;12.02;6.80;;;;;;;21.48;61.59;95579.78;5083629;28;20107;-81
2022/06/01 07:46:52;;;;;;;11.88;7.07;;;;;;;20.99;60.30;95579.09;5084319;28;20032;-80
2022/06/01 07:49:18;;;;;;;11.20;7.38;;;;;;;21.27;60.82;95589.47;5083606;28;20415;-80
2022/06/01 07:51:43;;;;;;;10.32;7.22;;;;;;;21.39;60.27;95584.81;5085293;28;20405;-81
2022/06/01 07:54:09;;;;;;;11.63;7.75;;;;;;;21.47;59.19;95592.59;5083551;28;20034;-80
2022/06/01 07:56:34;;;;;;;10.90;6.63;;;;;;;21.51;59.48;95573.84;5066757;28;20105;-79
2022/06/01 07:59:01;;;;;;;8.90;6.50;;;;;;;21.49;60.18;95585.00;5067512;28;20506;-81
2022/06/01 08:01:27;;;;;;;11.30;7.43;;;;;;;21.67;60.10;95587.78;5083432;28;20039;-82
2022/06/01 08:03:58;;;;;;;12.45;7.43;;;;;;;21.80;59.46;95592.97;5066841;28;20028;-81
2022/06/01 08:06:24;;;;;;;9.90;7.32;;;;;;;21.63;58.89;95586.63;5066980;28;20095;-81
2022/06/01 08:08:50;;;;;;;10.23;6.63;;;;;;;21.85;58.06;95590.34;5083918;28;20414;-81
2022/06/01 08:11:15;;;;;;;10.10;6.35;;;;;;;21.90;57.97;95589.59;5085122;28;20587;-81
2022/06/01 08:13:41;;;;;;;17.45;6.82;;;;;;;21.89;58.35;95584.41;5066830;28;20032;-81
2022/06/01 08:16:06;;;;;;;9.90;7.03;;;;;;;21.46;58.71;95587.38;5066921;28;20035;-83
2022/06/01 08:18:33;;;;;;;12.93;7.95;;;;;;;21.40;58.78;95581.00;5083346;28;20476;-80
2022/06/01 08:20:58;;;;;;;16.00;7.43;;;;;;;21.57;59.04;95572.06;5067301;28;20027;-80
2022/06/01 08:23:26;;;;;;;16.40;7.22;;;;;;;21.79;58.89;95580.41;5066425;28;20031;-81
2022/06/01 08:25:52;;;;;;;13.50;6.75;;;;;;;22.18;57.26;95573.41;5067062;28;20032;-81
2022/06/01 08:28:18;;;;;;;13.32;6.55;;;;;;;22.37;58.28;95573.16;5049677;28;20030;-81
2022/06/01 08:30:43;;;;;;;9.52;6.35;;;;;;;22.51;58.30;95573.63;5069667;28;20032;-81
2022/06/01 08:33:09;;;;;;;15.13;6.97;;;;;;;22.77;56.65;95577.63;5071026;28;20125;-88
2022/06/01 08:35:36;;;;;;;10.93;7.13;;;;;;;22.63;56.62;95571.69;5087404;28;20028;-79
2022/06/01 08:38:02;;;;;;;14.45;6.30;;;;;;;22.78;57.80;95573.81;5053813;28;20535;-81
2022/06/01 08:40:56;;;;;;;16.02;7.22;;;;;;;22.82;57.97;95569.50;5069749;28;20024;-82
2022/06/01 08:43:23;;;;;;;10.65;6.13;;;;;;;23.03;57.98;95564.31;5085081;28;20048;-80
2022/06/01 08:45:51;;;;;;;19.02;6.57;;;;;;;23.16;57.33;95565.84;5088009;28;20039;-81
2022/06/01 08:48:19;;;;;;;10.82;5.68;;;;;;;23.30;56.87;95568.16;5053855;28;20107;-81
2022/06/01 08:50:44;;;;;;;9.40;5.80;;;;;;;23.17;55.61;95564.75;5086665;28;20032;-80
2022/06/01 08:53:10;;;;;;;10.18;6.00;;;;;;;23.39;55.41;95571.34;5088031;28;20447;-81
2022/06/01 08:55:57;;;;;;;13.52;5.20;;;;;;;23.37;55.56;95557.03;5070363;28;20028;-79
2022/06/01 08:58:34;;;;;;;9.52;5.78;;;;;;;23.26;54.43;95564.31;5086635;28;20075;-79
2022/06/01 09:01:19;;;;;;;11.63;4.68;;;;;;;23.31;54.83;95559.72;5087131;28;20034;-80
2022/06/01 09:03:50;;;;;;;9.20;4.85;;;;;;;23.49;54.36;95565.97;5087111;28;20024;-81
2022/06/01 09:06:26;;;;;;;11.95;4.93;;;;;;;23.19;54.48;95567.22;5069895;28;20027;-80
2022/06/01 09:09:25;;;;;;;13.60;5.18;;;;;;;23.31;54.31;95554.22;5070977;28;20054;-81
2022/06/01 09:11:51;;;;;;;9.15;4.70;;;;;;;23.13;53.34;95560.03;5086049;28;20024;-80
2022/06/01 09:14:29;;;;;;;8.60;4.50;;;;;;;22.55;53.05;95563.88;5070028;28;20406;-80
2022/06/01 09:16:55;;;;;;;10.98;4.93;;;;;;;22.65;52.45;95568.72;5069517;28;20036;-79
2022/06/01 09:19:21;;;;;;;12.23;5.53;;;;;;;22.66;53.16;95559.41;5086271;28;20031;-81
2022/06/01 09:24:39;;;;;;;8.60;4.72;;;;;;;22.67;52.20;95550.13;5088538;28;20383;-80
2022/06/01 09:27:09;;;;;;;10.73;4.80;;;;;;;23.23;52.72;95551.13;5069900;28;20492;-80
2022/06/01 09:29:45;;;;;;;7.30;3.97;;;;;;;23.58;50.93;95549.91;5070323;28;20028;-80
2022/06/01 09:32:31;;;;;;;9.45;4.13;;;;;;;23.68;50.04;95547.28;5086116;28;20501;-80
2022/06/01 09:35:08;;;;;;;10.93;4.18;;;;;;;23.73;50.21;95541.03;5070187;28;20521;-80
2022/06/01 09:37:41;;;;;;;7.43;3.83;;;;;;;23.98;48.37;95545.09;5069526;28;20468;-80
2022/06/01 09:40:29;;;;;;;9.63;4.13;;;;;;;24.01;48.43;95539.09;5070200;28;20028;-81
2022/06/01 09:42:54;;;;;;;7.63;3.42;;;;;;;24.18;45.85;95538.19;5070282;28;20048;-80
2022/06/01 09:45:46;;;;;;;6.72;3.08;;;;;;;24.11;44.72;95532.88;5084323;28;20116;-82
2022/06/01 09:48:20;;;;;;;7.43;3.35;;;;;;;24.13;45.24;95532.63;5071196;28;20031;-79
2022/06/01 09:50:45;;;;;;;5.47;3.00;;;;;;;24.27;44.98;95531.13;5069409;28;20036;-80
2022/06/01 09:53:11;;;;;;;4.95;2.40;;;;;;;24.35;41.77;95537.19;5068589;28;20039;-80
2022/06/01 09:55:36;;;;;;;7.03;2.60;;;;;;;24.41;41.79;95539.72;5087072;28;20038;-80
2022/06/01 09:58:09;;;;;;;5.82;3.50;;;;;;;24.51;43.39;95529.91;5051870;28;20020;-80
2022/06/01 10:06:27;;;;;;;5.32;3.15;;;;;;;24.78;43.47;95518.00;5086554;28;20039;-82
2022/06/01 10:09:10;;;;;;;6.43;2.90;;;;;;;24.75;43.29;95508.38;5086268;28;20078;-80
2022/06/01 10:11:44;;;;;;;7.47;3.00;;;;;;;24.69;42.90;95520.44;5085310;28;20036;-79
2022/06/01 10:14:15;;;;;;;5.32;2.70;;;;;;;24.72;41.99;95522.63;5086370;28;20106;-79
2022/06/01 10:16:52;;;;;;;4.60;2.60;;;;;;;24.57;41.70;95518.72;5086794;28;20123;-80
2022/06/01 10:19:20;;;;;;;6.75;2.70;;;;;;;24.67;41.95;95512.47;5085794;28;20136;-81
2022/06/01 10:22:24;;;;;;;6.75;2.80;;;;;;;24.83;42.52;95514.47;5085866;28;20024;-80
2022/06/01 10:24:54;;;;;;;9.27;3.00;;;;;;;24.97;41.29;95515.69;5074367;28;20028;-80
2022/06/01 10:27:21;;;;;;;6.60;2.65;;;;;;;24.92;39.50;95513.72;5068903;28;20024;-80
2022/06/01 10:29:50;;;;;;;5.60;2.20;;;;;;;24.85;37.38;95512.28;5085382;28;20548;-80
2022/06/01 10:32:35;;;;;;;20.17;3.08;;;;;;;24.96;39.66;95514.00;5085798;28;20402;-81
2022/06/01 10:35:19;;;;;;;7.40;2.90;;;;;;;25.13;41.30;95513.81;5069362;28;20020;-80
2022/06/01 10:37:55;;;;;;;8.15;2.47;;;;;;;25.09;36.79;95511.84;5068982;28;20055;-81
2022/06/01 10:40:34;;;;;;;6.68;2.20;;;;;;;25.11;36.19;95509.69;5085577;28;20019;-80
2022/06/01 10:43:17;;;;;;;5.18;2.55;;;;;;;24.92;37.22;95507.41;5086066;28;20132;-81
2022/06/01 10:45:47;;;;;;;4.47;1.90;;;;;;;24.97;39.41;95498.38;5069836;28;20419;-80
2022/06/01 10:48:14;;;;;;;6.22;2.30;;;;;;;25.20;39.45;95507.25;5085646;28;20329;-80
2022/06/01 10:50:45;;;;;;;6.38;2.30;;;;;;;25.22;37.16;95503.13;5067982;28;20055;-81
2022/06/01 10:53:35;;;;;;;5.37;2.37;;;;;;;25.33;39.88;95501.25;5068697;28;20035;-80
2022/06/01 10:56:01;;;;;;;6.93;2.17;;;;;;;25.33;36.89;95492.19;5085133;28;20098;-81
2022/06/01 10:58:26;;;;;;;5.60;3.00;;;;;;;25.35;38.33;95492.72;5067811;28;20035;-80
2022/06/01 11:01:35;;;;;;;6.20;2.15;;;;;;;25.47;38.16;95500.75;5085148;28;20020;-80
2022/06/01 11:04:09;;;;;;;9.30;2.90;;;;;;;25.47;41.47;95493.31;5085332;28;20036;-80
2022/06/01 11:07:03;;;;;;;6.85;2.42;;;;;;;25.61;38.01;95493.63;5086175;28;20032;-80
2022/06/01 11:09:37;;;;;;;5.70;2.70;;;;;;;25.89;39.96;95498.91;5068893;28;20028;-79
2022/06/01 11:12:08;;;;;;;8.05;2.60;;;;;;;25.99;39.94;95485.16;5085832;28;20035;-80
2022/06/01 11:14:54;;;;;;;9.00;2.42;;;;;;;26.15;35.83;95488.72;5084827;28;20028;-80
2022/06/01 11:17:20;;;;;;;7.55;2.05;;;;;;;26.06;35.30;95479.41;5084126;28;20479;-80
2022/06/01 11:20:23;;;;;;;6.50;2.28;;;;;;;26.17;36.33;95491.19;5085907;28;20020;-80
2022/06/01 11:23:06;;;;;;;;;;;;;;;26.20;38.65;95485.16;5086488;28;20452;-79
2022/06/01 11:25:53;;;;;;;6.50;2.00;;;;;;;26.23;37.75;95481.03;5085139;28;19912;-80
2022/06/01 11:28:43;;;;;;;6.72;2.15;;;;;;;26.45;36.29;95480.75;5084854;28;20031;-79
2022/06/01 11:31:23;;;;;;;7.55;2.10;;;;;;;26.53;33.03;95469.19;5085963;28;20107;-78
2022/06/01 11:33:57;;;;;;;4.95;2.20;;;;;;;26.67;34.10;95471.34;5068380;28;20024;-81
2022/06/01 11:36:37;;;;;;;6.28;1.75;;;;;;;26.70;31.18;95470.78;5084685;28;20063;-81
2022/06/01 11:39:12;;;;;;;5.65;2.15;;;;;;;26.76;33.01;95464.16;5084020;28;20016;-80
2022/06/01 11:41:38;;;;;;;7.32;2.50;;;;;;;26.83;33.34;95463.03;5067224;28;20606;-79
2022/06/01 11:44:13;;;;;;;5.28;2.03;;;;;;;27.00;29.68;95471.78;5050850;28;20482;-81
2022/06/01 11:46:40;;;;;;;7.32;2.00;;;;;;;27.04;31.33;95466.56;5067145;28;20032;-81
2022/06/01 11:49:14;;;;;;;6.88;2.35;;;;;;;27.16;33.51;95466.25;5084356;28;20025;-80
2022/06/01 11:51:49;;;;;;;9.65;2.53;;;;;;;27.39;31.80;95453.72;5083573;28;20525;-80
2022/06/01 11:54:35;;;;;;;8.32;2.67;;;;;;;27.39;33.36;95453.72;5067609;28;20039;-80
2022/06/01 11:57:04;;;;;;;8.07;1.92;;;;;;;27.55;31.66;95458.31;5066821;28;20043;-80
2022/06/01 11:59:32;;;;;;;5.78;2.35;;;;;;;27.60;30.76;95458.28;5083501;28;20035;-80
2022/06/01 12:01:59;;;;;;;4.82;2.17;;;;;;;27.59;30.54;95445.59;5085120;28;20032;-81